Time;durP1;ratioP1;P1;durP2;ratioP2;P2;SDS_P1;SDS_P2;PMS_P1;PMS_P2;Temp;Humidity;BMP_temperature;BMP_pressure;BME280_temperature;BME280_humidity;BME280_pressure;Samples;Min_cycle;Max_cycle;Signal;HPM_P1;HPM_P2
2022/01/02 00:00:41;;;;;;;8.40;2.50;;;;;12.60;101348.00;;;;10541718;28;20210;-79
2022/01/02 00:06:03;;;;;;;9.73;3.47;;;;;12.70;101350.00;;;;10569293;28;20663;-78
2022/01/02 00:11:25;;;;;;;7.37;2.50;;;;;12.70;101332.00;;;;10513617;28;20192;-79
2022/01/02 00:16:46;;;;;;;8.23;2.13;;;;;12.70;101327.00;;;;10501061;28;20185;-79
2022/01/02 00:22:13;;;;;;;4.93;2.37;;;;;12.60;101321.00;;;;10509988;28;20207;-79
2022/01/02 00:27:36;;;;;;;9.57;2.80;;;;;12.60;101330.00;;;;10516365;28;20193;-78
2022/01/02 00:32:56;;;;;;;5.23;2.70;;;;;12.60;101325.00;;;;10572182;28;20188;-79
2022/01/02 00:38:21;;;;;;;7.30;3.33;;;;;12.70;101324.00;;;;10571538;28;20208;-78
2022/01/02 00:43:47;;;;;;;9.97;2.80;;;;;12.70;101300.00;;;;10571420;28;20188;-79
2022/01/02 00:49:10;;;;;;;7.43;2.77;;;;;12.60;101314.00;;;;10537456;28;20181;-79
2022/01/02 00:54:33;;;;;;;13.13;3.40;;;;;12.50;101292.00;;;;10530634;28;20189;-81
2022/01/02 01:00:05;;;;;;;8.97;3.43;;;;;12.30;101295.00;;;;10537626;28;20349;-81
2022/01/02 01:05:33;;;;;;;10.63;3.47;;;;;12.10;101283.00;;;;10552392;28;20189;-81
2022/01/02 01:10:54;;;;;;;10.53;3.07;;;;;12.00;101266.00;;;;10583430;27;20180;-81
2022/01/02 01:16:18;;;;;;;9.97;4.33;;;;;12.00;101285.00;;;;10583113;27;20264;-81
2022/01/02 01:21:38;;;;;;;8.80;3.07;;;;;12.00;101276.00;;;;10533915;28;20216;-81
2022/01/02 01:27:00;;;;;;;10.17;3.47;;;;;12.00;101268.00;;;;10540466;28;20185;-81
2022/01/02 01:32:22;;;;;;;8.47;3.17;;;;;12.10;101250.00;;;;10554573;28;20199;-82
2022/01/02 01:37:42;;;;;;;9.07;3.30;;;;;12.00;101226.00;;;;10539887;28;20224;-81
2022/01/02 01:43:10;;;;;;;8.40;3.00;;;;;11.90;101242.00;;;;10540965;28;20245;-81
2022/01/02 01:48:33;;;;;;;11.47;3.20;;;;;11.80;101242.00;;;;10550243;28;20188;-81
2022/01/02 01:53:54;;;;;;;9.77;3.40;;;;;11.70;101242.00;;;;10568011;28;20582;-81
2022/01/02 01:59:16;;;;;;;11.53;3.30;;;;;11.70;101233.00;;;;10536412;28;20285;-81
2022/01/02 02:04:37;;;;;;;7.53;3.30;;;;;11.70;101229.00;;;;10528960;28;20266;-82
2022/01/02 02:15:26;;;;;;;7.93;3.00;;;;;11.60;101216.00;;;;10511003;28;20200;-81
2022/01/02 02:20:47;;;;;;;7.33;2.93;;;;;11.60;101197.00;;;;10521370;28;20617;-81
2022/01/02 02:26:17;;;;;;;15.70;3.03;;;;;11.60;101205.00;;;;10539663;28;20283;-80
2022/01/02 02:31:38;;;;;;;8.07;3.60;;;;;11.50;101205.00;;;;10509908;28;20181;-80
2022/01/02 02:36:59;;;;;;;9.80;3.53;;;;;11.40;101211.00;;;;10525764;28;20220;-81
2022/01/02 02:42:39;;;;;;;9.77;3.27;;;;;11.40;101204.00;;;;10494706;28;20199;-81
2022/01/02 02:54:06;;;;;;;7.13;3.30;;;;;11.50;101187.00;;;;10544431;28;20192;-80
2022/01/02 02:59:32;;;;;;;6.30;2.90;;;;;11.60;101181.00;;;;10541606;28;20201;-81
2022/01/02 03:04:53;;;;;;;8.40;2.87;;;;;11.60;101186.00;;;;10554602;28;20183;-81
2022/01/02 03:10:16;;;;;;;9.23;2.73;;;;;11.60;101176.00;;;;10554593;28;20184;-81
2022/01/02 03:15:37;;;;;;;7.63;2.53;;;;;11.70;101165.00;;;;10568410;28;20191;-81
2022/01/02 03:20:58;;;;;;;7.13;2.63;;;;;11.70;101168.00;;;;10568112;28;20299;-82
2022/01/02 03:26:19;;;;;;;8.40;2.70;;;;;11.60;101162.00;;;;10507398;28;20189;-82
2022/01/02 03:31:40;;;;;;;9.60;2.93;;;;;11.60;101154.00;;;;10517690;28;20177;-82
2022/01/02 03:37:01;;;;;;;4.83;2.87;;;;;11.60;101133.00;;;;10512000;28;20232;-81
2022/01/02 03:42:24;;;;;;;6.90;2.80;;;;;11.60;101135.00;;;;10508647;28;20205;-81
2022/01/02 03:47:44;;;;;;;7.43;2.50;;;;;11.60;101143.00;;;;10542980;28;20674;-81
2022/01/02 03:53:05;;;;;;;4.73;2.53;;;;;11.70;101126.00;;;;10550320;28;20184;-81
2022/01/02 03:58:26;;;;;;;7.93;3.07;;;;;11.70;101108.00;;;;10518280;28;20615;-82
2022/01/02 04:03:46;;;;;;;7.43;2.70;;;;;11.70;101096.00;;;;10543676;28;20219;-82
2022/01/02 04:09:07;;;;;;;10.13;2.60;;;;;11.60;101072.00;;;;10560921;27;20741;-82
2022/01/02 04:14:27;;;;;;;4.80;2.40;;;;;11.60;101052.00;;;;10574128;28;20199;-82
2022/01/02 04:19:48;;;;;;;6.63;2.50;;;;;11.60;101045.00;;;;10557750;28;20238;-82
2022/01/02 04:25:11;;;;;;;8.23;2.80;;;;;11.60;101045.00;;;;10512728;28;20220;-82
2022/01/02 04:30:32;;;;;;;7.43;3.10;;;;;11.60;101050.00;;;;10501390;28;20188;-82
2022/01/02 04:35:52;;;;;;;7.00;3.10;;;;;11.50;101041.00;;;;10510727;28;20244;-82
2022/01/02 04:41:13;;;;;;;7.23;2.50;;;;;11.40;101037.00;;;;10582740;27;20286;-82
2022/01/02 04:46:34;;;;;;;8.03;2.80;;;;;11.40;101004.00;;;;10539704;28;20200;-82
2022/01/02 04:51:56;;;;;;;6.10;2.93;;;;;11.30;100992.00;;;;10541307;28;20656;-82
2022/01/02 04:57:16;;;;;;;5.30;2.87;;;;;11.30;100977.00;;;;10559109;28;20697;-81
2022/01/02 05:02:37;;;;;;;6.40;2.90;;;;;11.30;100983.00;;;;10555878;28;20605;-82
2022/01/02 05:07:58;;;;;;;3.93;2.50;;;;;11.30;100981.00;;;;10548565;27;20195;-82
2022/01/02 05:13:18;;;;;;;5.37;2.80;;;;;11.30;100983.00;;;;10582822;27;20199;-82
2022/01/02 05:18:39;;;;;;;5.20;2.67;;;;;11.20;100964.00;;;;10555563;28;20307;-82
2022/01/02 05:24:00;;;;;;;6.03;2.87;;;;;11.20;100968.00;;;;10527020;28;20193;-82
2022/01/02 05:29:22;;;;;;;6.57;2.37;;;;;11.10;100928.00;;;;10512688;28;20185;-82
2022/01/02 05:34:42;;;;;;;6.90;3.10;;;;;11.00;100874.00;;;;10528737;28;20205;-81
2022/01/02 05:40:03;;;;;;;3.30;2.37;;;;;11.00;100864.00;;;;10497959;28;20200;-82
2022/01/02 05:45:24;;;;;;;4.33;2.47;;;;;11.00;100822.00;;;;10494710;28;20292;-82
2022/01/02 05:50:45;;;;;;;3.17;2.10;;;;;11.00;100815.00;;;;10504566;28;20192;-82
2022/01/02 05:56:06;;;;;;;6.63;1.93;;;;;11.10;100791.00;;;;10540205;28;20895;-81
2022/01/02 06:01:28;;;;;;;3.27;2.50;;;;;11.10;100793.00;;;;10554000;28;20214;-81
2022/01/02 06:06:50;;;;;;;4.47;2.70;;;;;11.20;100788.00;;;;10553993;28;20726;-81
2022/01/02 06:12:12;;;;;;;4.27;2.10;;;;;11.30;100771.00;;;;10526788;28;20192;-81
2022/01/02 06:17:33;;;;;;;5.67;2.40;;;;;11.30;100764.00;;;;10531963;28;20287;-81
2022/01/02 06:22:54;;;;;;;2.63;2.10;;;;;11.40;100756.00;;;;10552120;28;20273;-81
2022/01/02 06:28:16;;;;;;;3.67;2.60;;;;;11.40;100738.00;;;;10551633;28;20663;-81
2022/01/02 06:33:37;;;;;;;3.67;2.17;;;;;11.60;100723.00;;;;10547879;28;20188;-81
2022/01/02 06:38:59;;;;;;;4.63;2.63;;;;;11.60;100708.00;;;;10536377;28;20299;-80
2022/01/02 06:44:22;;;;;;;3.37;1.80;;;;;11.70;100705.00;;;;10529891;28;20191;-81
2022/01/02 06:49:43;;;;;;;3.53;1.80;;;;;11.80;100709.00;;;;10537433;28;20180;-80
2022/01/02 06:55:03;;;;;;;2.93;2.03;;;;;11.80;100714.00;;;;10517045;28;20195;-81
2022/01/02 07:00:24;;;;;;;3.27;1.63;;;;;11.80;100722.00;;;;10511692;28;20203;-80
2022/01/02 07:05:45;;;;;;;3.17;1.70;;;;;11.90;100721.00;;;;10556249;28;20199;-80
2022/01/02 07:11:08;;;;;;;4.30;1.80;;;;;12.00;100735.00;;;;10550595;28;20632;-80
2022/01/02 07:16:29;;;;;;;3.30;1.83;;;;;12.10;100752.00;;;;10536383;28;20180;-80
2022/01/02 07:21:50;;;;;;;3.73;1.87;;;;;12.20;100754.00;;;;10521789;28;20227;-80
2022/01/02 07:27:11;;;;;;;5.47;2.10;;;;;12.20;100749.00;;;;10519672;28;20195;-80
2022/01/02 07:32:31;;;;;;;3.70;1.50;;;;;12.20;100758.00;;;;10515442;28;20188;-79
2022/01/02 07:37:52;;;;;;;2.00;1.80;;;;;12.30;100751.00;;;;10527562;28;20250;-80
2022/01/02 07:43:12;;;;;;;2.50;1.63;;;;;12.40;100762.00;;;;10502201;28;20281;-80
2022/01/02 07:48:33;;;;;;;5.73;2.23;;;;;12.50;100788.00;;;;10560586;28;20207;-80
2022/01/02 07:53:53;;;;;;;3.60;2.40;;;;;12.50;100808.00;;;;10554950;28;20188;-80
2022/01/02 07:59:13;;;;;;;4.20;2.53;;;;;12.60;100789.00;;;;10530751;28;20207;-80
2022/01/02 08:04:34;;;;;;;3.63;2.20;;;;;12.60;100809.00;;;;10548612;28;20188;-80
2022/01/02 08:09:54;;;;;;;4.30;2.73;;;;;12.50;100815.00;;;;10559903;28;20230;-80
2022/01/02 08:15:14;;;;;;;5.17;2.67;;;;;12.40;100834.00;;;;10555816;27;20665;-80
2022/01/02 08:20:35;;;;;;;6.70;3.20;;;;;12.40;100825.00;;;;10544924;28;20569;-80
2022/01/02 08:25:55;;;;;;;4.90;2.83;;;;;12.30;100808.00;;;;10524478;28;20604;-80
2022/01/02 08:31:16;;;;;;;3.80;3.00;;;;;12.30;100796.00;;;;10551698;28;20244;-80
2022/01/02 08:36:36;;;;;;;6.37;3.10;;;;;12.20;100806.00;;;;10537665;28;20231;-80
2022/01/02 08:41:57;;;;;;;5.83;2.97;;;;;12.20;100811.00;;;;10569260;28;20192;-80
2022/01/02 08:47:17;;;;;;;4.77;3.17;;;;;12.10;100824.00;;;;10571917;27;20180;-80
2022/01/02 08:52:39;;;;;;;5.37;3.43;;;;;12.20;100827.00;;;;10541999;27;20599;-79
2022/01/02 08:57:59;;;;;;;7.03;3.97;;;;;12.20;100826.00;;;;10556149;28;20192;-79
2022/01/02 09:03:19;;;;;;;8.60;3.80;;;;;12.40;100823.00;;;;10535153;28;20188;-79
2022/01/02 09:08:40;;;;;;;4.20;3.20;;;;;12.60;100821.00;;;;10566575;27;20218;-79
2022/01/02 09:14:02;;;;;;;9.37;3.97;;;;;13.10;100832.00;;;;10590701;27;20545;-80
2022/01/02 09:19:22;;;;;;;8.17;3.77;;;;;13.30;100823.00;;;;10556843;28;20290;-80
2022/01/02 09:24:43;;;;;;;8.13;3.87;;;;;13.60;100829.00;;;;10540105;28;20888;-80
2022/01/02 09:30:04;;;;;;;5.50;3.67;;;;;13.70;100839.00;;;;10538996;28;20706;-80
2022/01/02 09:35:25;;;;;;;5.33;3.57;;;;;13.50;100829.00;;;;10545231;28;20235;-79
2022/01/02 09:40:46;;;;;;;6.67;3.90;;;;;13.80;100848.00;;;;10561207;28;20204;-78
2022/01/02 09:46:07;;;;;;;5.53;4.07;;;;;13.90;100846.00;;;;10541194;28;20192;-79
2022/01/02 09:51:27;;;;;;;7.03;4.53;;;;;13.60;100863.00;;;;10495806;28;20738;-79
2022/01/02 09:56:48;;;;;;;6.17;3.70;;;;;13.80;100857.00;;;;10556847;28;20536;-79
2022/01/02 10:01:50;;;;;;;7.80;4.27;;;;;13.90;100862.00;;;;10565713;28;20655;-79
2022/01/02 10:06:53;;;;;;;9.40;3.45;;;;;13.70;100873.00;;;;10527822;28;20200;-79
2022/01/02 10:12:27;;;;;;;8.27;3.20;;;;;13.50;100864.00;;;;10569046;27;20184;-79
2022/01/02 10:17:29;;;;;;;6.47;4.00;;;;;13.40;100858.00;;;;10499123;28;20726;-78
2022/01/02 10:22:30;;;;;;;9.07;3.77;;;;;13.30;100875.00;;;;10530914;28;20219;-79
2022/01/02 10:27:32;;;;;;;11.60;3.70;;;;;13.30;100858.00;;;;10530541;28;20189;-79
2022/01/02 10:32:39;;;;;;;8.97;3.70;;;;;13.30;100845.00;;;;10530842;28;20180;-79
2022/01/02 10:37:43;;;;;;;7.05;4.00;;;;;14.00;100849.00;;;;10552188;27;20222;-79
2022/01/02 10:42:45;;;;;;;6.95;3.50;;;;;14.10;100844.00;;;;10488752;28;20209;-80
2022/01/02 10:47:48;;;;;;;6.67;3.30;;;;;14.30;100839.00;;;;10506087;28;20224;-78
2022/01/02 10:53:15;;;;;;;8.60;4.03;;;;;14.70;100835.00;;;;10531498;28;20190;-79
2022/01/02 10:58:17;;;;;;;5.85;2.92;;;;;15.10;100825.00;;;;10516240;28;20200;-78
2022/01/02 11:03:24;;;;;;;7.63;3.50;;;;;14.60;100844.00;;;;10504988;28;20212;-79
2022/01/02 11:08:29;;;;;;;8.30;3.17;;;;;15.30;100860.00;;;;10526156;27;20283;-79
2022/01/02 11:13:33;;;;;;;5.40;3.10;;;;;15.50;100832.00;;;;10558837;27;20239;-78
2022/01/02 11:18:36;;;;;;;6.22;3.05;;;;;15.60;100834.00;;;;10525837;28;20279;-79
2022/01/02 11:23:53;;;;;;;7.28;3.25;;;;;15.70;100831.00;;;;10509127;28;20193;-79
2022/01/02 11:29:10;;;;;;;6.13;3.40;;;;;15.30;100837.00;;;;10503818;28;20192;-78
2022/01/02 11:34:46;;;;;;;8.15;4.38;;;;;16.10;100836.00;;;;10529172;28;20615;-79
2022/01/02 11:40:22;;;;;;;9.35;3.15;;;;;15.80;100824.00;;;;10502567;28;20288;-79
2022/01/02 11:46:52;;;;;;;8.55;3.30;;;;;15.00;100823.00;;;;10528361;28;20200;-78
2022/01/02 11:51:55;;;;;;;10.93;3.47;;;;;15.20;100821.00;;;;10534474;28;20220;-78
2022/01/02 11:57:25;;;;;;;6.18;3.38;;;;;15.50;100814.00;;;;10526465;28;20201;-79
2022/01/02 12:02:27;;;;;;;7.43;3.25;;;;;15.90;100803.00;;;;10513773;28;20201;-79
2022/01/02 12:07:36;;;;;;;10.48;3.92;;;;;15.90;100809.00;;;;10503010;28;20196;-78
2022/01/02 12:12:59;;;;;;;6.82;4.13;;;;;15.40;100804.00;;;;10505589;28;20212;-78
2022/01/02 12:18:17;;;;;;;9.77;3.78;;;;;15.90;100805.00;;;;10542885;28;20189;-79
2022/01/02 12:23:31;;;;;;;9.85;3.00;;;;;15.60;100803.00;;;;10542125;28;20216;-79
2022/01/02 12:28:40;;;;;;;8.27;3.13;;;;;15.80;100804.00;;;;10523675;28;20258;-79
2022/01/02 12:33:43;;;;;;;4.53;2.67;;;;;15.40;100802.00;;;;10528126;28;20223;-78
2022/01/02 12:38:49;;;;;;;7.80;3.50;;;;;15.10;100798.00;;;;10534412;27;20197;-78
2022/01/02 12:44:09;;;;;;;9.75;2.95;;;;;15.70;100802.00;;;;10493244;28;20219;-78
2022/01/02 12:49:28;;;;;;;6.13;3.22;;;;;15.70;100796.00;;;;10489284;28;20185;-78
2022/01/02 12:54:33;;;;;;;4.95;2.92;;;;;15.70;100807.00;;;;10513221;28;20667;-78
2022/01/02 12:59:40;;;;;;;6.82;3.00;;;;;15.60;100811.00;;;;10526849;28;20200;-78
2022/01/02 13:04:48;;;;;;;5.40;2.50;;;;;15.60;100820.00;;;;10525330;28;20200;-79
2022/01/02 13:09:53;;;;;;;5.22;2.80;;;;;15.70;100821.00;;;;10554427;28;20207;-78
2022/01/02 13:14:56;;;;;;;4.93;2.60;;;;;15.60;100829.00;;;;10529780;28;20189;-78
2022/01/02 13:20:08;;;;;;;7.15;2.53;;;;;15.90;100822.00;;;;10566880;28;20211;-78
2022/01/02 13:25:15;;;;;;;6.10;2.33;;;;;16.10;100824.00;;;;10540575;28;20201;-79
2022/01/02 13:30:21;;;;;;;4.63;1.70;;;;;15.40;100820.00;;;;10544246;28;20188;-78
2022/01/02 13:35:25;;;;;;;6.43;1.80;;;;;15.10;100817.00;;;;10540436;28;20220;-79
2022/01/02 13:40:33;;;;;;;7.03;2.30;;;;;15.00;100822.00;;;;10526971;27;20291;-79
2022/01/02 13:45:42;;;;;;;4.05;2.10;;;;;15.10;100816.00;;;;10530294;27;20200;-79
2022/01/02 13:50:46;;;;;;;4.85;2.50;;;;;15.00;100821.00;;;;10522176;28;20195;-79
2022/01/02 13:56:05;;;;;;;8.55;2.30;;;;;14.70;100829.00;;;;10497980;28;20216;-78
2022/01/02 14:01:34;;;;;;;8.63;2.35;;;;;14.10;100828.00;;;;10510872;28;20204;-79
2022/01/02 14:06:39;;;;;;;6.47;2.95;;;;;14.00;100833.00;;;;10482097;28;20200;-79
2022/01/02 14:11:52;;;;;;;6.30;2.70;;;;;13.80;100819.00;;;;10516741;28;20192;-79
2022/01/02 14:17:16;;;;;;;5.67;2.83;;;;;13.50;100819.00;;;;10534489;27;20196;-79
2022/01/02 14:22:23;;;;;;;5.90;2.50;;;;;13.30;100811.00;;;;10547690;28;20262;-79
2022/01/02 14:27:28;;;;;;;7.43;3.03;;;;;13.20;100815.00;;;;10522233;28;20239;-79
2022/01/02 14:32:30;;;;;;;7.87;3.00;;;;;13.20;100821.00;;;;10514919;28;20189;-78
2022/01/02 14:37:32;;;;;;;10.13;2.80;;;;;13.10;100826.00;;;;10523362;27;20253;-79
2022/01/02 14:42:35;;;;;;;9.03;3.43;;;;;13.00;100813.00;;;;10540545;28;20204;-78
2022/01/02 14:47:39;;;;;;;10.10;2.40;;;;;13.00;100816.00;;;;10526246;28;20226;-78
2022/01/02 14:52:43;;;;;;;6.23;3.07;;;;;13.00;100820.00;;;;10523357;28;20188;-78
2022/01/02 14:57:49;;;;;;;7.93;2.70;;;;;13.00;100825.00;;;;10526753;28;20204;-78
2022/01/02 15:02:51;;;;;;;5.80;2.70;;;;;12.80;100810.00;;;;10546658;28;20217;-80
2022/01/02 15:07:53;;;;;;;5.97;2.70;;;;;12.40;100823.00;;;;10522803;27;20201;-82
2022/01/02 15:12:57;;;;;;;9.20;3.20;;;;;12.20;100810.00;;;;10535194;27;20196;-81
2022/01/02 15:17:58;;;;;;;6.37;3.00;;;;;12.20;100807.00;;;;10506951;28;20192;-81
2022/01/02 15:23:01;;;;;;;7.20;3.43;;;;;12.10;100797.00;;;;10530458;28;20200;-80
2022/01/02 15:28:04;;;;;;;5.00;2.83;;;;;12.00;100800.00;;;;10515618;28;20195;-80
2022/01/02 15:33:06;;;;;;;10.57;3.43;;;;;12.00;100796.00;;;;10516809;28;20602;-80
2022/01/02 15:38:08;;;;;;;11.17;3.27;;;;;12.00;100788.00;;;;10553547;28;20702;-80
2022/01/02 15:43:10;;;;;;;5.10;2.63;;;;;11.90;100770.00;;;;10514261;28;20226;-80
2022/01/02 15:48:12;;;;;;;11.43;3.50;;;;;11.90;100759.00;;;;10531556;28;20212;-80
2022/01/02 15:53:13;;;;;;;7.60;3.97;;;;;11.90;100746.00;;;;10532151;28;20242;-80
2022/01/02 15:58:16;;;;;;;9.30;4.00;;;;;11.90;100746.00;;;;10527505;28;20213;-80
2022/01/02 16:03:18;;;;;;;9.20;3.73;;;;;11.90;100742.00;;;;10519009;28;20251;-80
2022/01/02 16:08:21;;;;;;;15.53;4.20;;;;;12.00;100730.00;;;;10480463;28;20188;-80
2022/01/02 16:13:23;;;;;;;9.30;4.10;;;;;12.00;100722.00;;;;10533878;28;20181;-80
2022/01/02 16:18:25;;;;;;;16.70;4.07;;;;;12.00;100754.00;;;;10493393;28;20245;-81
2022/01/02 16:23:27;;;;;;;15.07;4.50;;;;;11.90;100748.00;;;;10526044;28;20216;-83
2022/01/02 16:28:28;;;;;;;10.27;4.67;;;;;11.70;100773.00;;;;10550024;28;20192;-81
2022/01/02 16:33:30;;;;;;;8.13;4.10;;;;;11.60;100759.00;;;;10540033;28;20594;-82
2022/01/02 16:38:33;;;;;;;7.77;3.47;;;;;11.50;100763.00;;;;10535713;27;20671;-83
2022/01/02 16:43:35;;;;;;;7.13;3.40;;;;;11.40;100752.00;;;;10514619;28;20689;-82
2022/01/02 16:48:37;;;;;;;6.13;2.57;;;;;11.30;100725.00;;;;10540953;28;20185;-82
2022/01/02 16:53:39;;;;;;;3.53;1.90;;;;;11.20;100712.00;;;;10510961;28;20192;-81
2022/01/02 16:58:45;;;;;;;3.17;1.40;;;;;11.10;100710.00;;;;10514801;28;20671;-81
2022/01/02 17:03:48;;;;;;;5.73;2.47;;;;;11.10;100713.00;;;;10541732;28;20235;-82
2022/01/02 17:08:53;;;;;;;5.67;2.13;;;;;11.00;100704.00;;;;10552165;27;20210;-82
2022/01/02 17:13:55;;;;;;;3.83;2.23;;;;;11.00;100694.00;;;;10561057;27;20202;-82
2022/01/02 17:18:57;;;;;;;4.27;2.23;;;;;10.90;100692.00;;;;10578471;27;20195;-81
2022/01/02 17:23:59;;;;;;;7.67;5.37;;;;;11.00;100673.00;;;;10561742;27;20215;-81
2022/01/02 17:29:01;;;;;;;5.60;2.40;;;;;11.00;100658.00;;;;10548855;27;20233;-81
2022/01/02 17:34:03;;;;;;;8.33;3.00;;;;;11.00;100653.00;;;;10519097;28;20208;-81
2022/01/02 17:39:05;;;;;;;10.60;3.60;;;;;11.00;100640.00;;;;10535976;28;20253;-81
2022/01/02 17:44:12;;;;;;;7.30;3.03;;;;;11.00;100639.00;;;;10551684;28;20228;-81
2022/01/02 17:49:16;;;;;;;15.87;4.43;;;;;11.10;100624.00;;;;10535571;28;20601;-82
2022/01/02 17:54:19;;;;;;;6.10;3.17;;;;;11.20;100624.00;;;;10551661;28;20223;-83
2022/01/02 17:59:22;;;;;;;12.70;4.03;;;;;11.20;100616.00;;;;10518313;28;20189;-82
2022/01/02 18:04:24;;;;;;;6.53;2.83;;;;;11.20;100611.00;;;;10551256;28;20220;-82
2022/01/02 18:09:42;;;;;;;4.90;2.70;;;;;11.20;100602.00;;;;10540402;27;20340;-83
2022/01/02 18:14:46;;;;;;;7.97;3.03;;;;;11.20;100574.00;;;;10536566;28;20196;-82
2022/01/02 18:19:48;;;;;;;4.27;2.83;;;;;11.20;100544.00;;;;10532209;28;20188;-82
2022/01/02 18:24:52;;;;;;;5.27;3.07;;;;;11.20;100597.00;;;;10515038;28;20732;-82
2022/01/02 18:29:54;;;;;;;6.43;2.33;;;;;11.10;100639.00;;;;10532562;28;20196;-83
2022/01/02 18:34:57;;;;;;;4.40;2.00;;;;;11.00;100666.00;;;;10550693;28;20242;-83
2022/01/02 18:39:59;;;;;;;5.37;2.70;;;;;11.00;100657.00;;;;10509985;28;20193;-83
2022/01/02 18:45:01;;;;;;;4.77;1.33;;;;;10.90;100622.00;;;;10508447;28;20714;-83
2022/01/02 18:50:05;;;;;;;4.00;1.63;;;;;10.60;100602.00;;;;10508735;28;20626;-82
2022/01/02 18:55:10;;;;;;;3.50;1.40;;;;;10.40;100603.00;;;;10490868;28;20896;-83
2022/01/02 19:00:13;;;;;;;4.30;1.30;;;;;10.20;100629.00;;;;10508881;28;20204;-83
2022/01/02 19:05:16;;;;;;;2.47;0.70;;;;;10.00;100625.00;;;;10525958;27;20274;-81
2022/01/02 19:10:18;;;;;;;1.30;0.60;;;;;9.80;100630.00;;;;10522547;28;20196;-82
2022/01/02 19:15:23;;;;;;;3.90;0.87;;;;;9.50;100631.00;;;;10506846;28;20192;-83
2022/01/02 19:20:25;;;;;;;5.87;1.23;;;;;9.50;100624.00;;;;10491110;28;20235;-82
2022/01/02 19:25:27;;;;;;;7.33;1.27;;;;;9.40;100618.00;;;;10510162;28;20211;-82
2022/01/02 19:30:33;;;;;;;4.40;1.27;;;;;9.50;100620.00;;;;10531979;28;20188;-81
2022/01/02 19:35:36;;;;;;;6.70;1.67;;;;;9.50;100634.00;;;;10537613;28;20230;-81
2022/01/02 19:40:38;;;;;;;4.17;1.80;;;;;9.50;100632.00;;;;10568978;27;20616;-81
2022/01/02 19:45:41;;;;;;;3.03;1.50;;;;;9.50;100638.00;;;;10564421;27;20201;-81
2022/01/02 19:50:43;;;;;;;4.57;1.87;;;;;9.50;100635.00;;;;10581729;27;20183;-81
2022/01/02 19:55:46;;;;;;;8.53;2.33;;;;;9.40;100644.00;;;;10581905;27;20195;-81
2022/01/02 20:00:49;;;;;;;7.83;2.60;;;;;9.50;100641.00;;;;10563927;27;20306;-81
2022/01/02 20:05:51;;;;;;;12.80;1.90;;;;;9.70;100641.00;;;;10582370;27;20211;-81
2022/01/02 20:10:53;;;;;;;12.17;2.13;;;;;10.00;100656.00;;;;10565609;27;20207;-81
2022/01/02 20:15:55;;;;;;;9.90;2.20;;;;;10.30;100662.00;;;;10564962;27;20647;-80
2022/01/02 20:20:57;;;;;;;6.87;1.90;;;;;10.40;100661.00;;;;10563629;27;20235;-80
2022/01/02 20:26:01;;;;;;;8.83;1.80;;;;;10.50;100660.00;;;;10563427;27;20260;-80
2022/01/02 20:31:04;;;;;;;10.77;2.37;;;;;10.70;100684.00;;;;10555849;27;20199;-80
2022/01/02 20:36:06;;;;;;;17.53;2.30;;;;;10.70;100697.00;;;;10537194;28;20220;-79
2022/01/02 20:41:10;;;;;;;10.77;2.23;;;;;10.60;100704.00;;;;10528075;28;20266;-79
2022/01/02 20:46:12;;;;;;;11.70;2.10;;;;;10.60;100714.00;;;;10511020;28;20726;-80
2022/01/02 20:51:14;;;;;;;23.20;3.73;;;;;10.60;100725.00;;;;10494413;28;20207;-81
2022/01/02 20:56:16;;;;;;;19.17;2.90;;;;;10.50;100731.00;;;;10495771;28;20690;-80
2022/01/02 21:01:19;;;;;;;18.23;3.37;;;;;10.40;100738.00;;;;10495667;28;20208;-81
2022/01/02 21:06:22;;;;;;;19.83;2.90;;;;;10.40;100727.00;;;;10511758;28;20193;-81
2022/01/02 21:11:24;;;;;;;22.67;3.90;;;;;10.40;100742.00;;;;10532800;28;20242;-80
2022/01/02 21:16:27;;;;;;;25.43;3.33;;;;;10.40;100754.00;;;;10520025;28;20242;-80
2022/01/02 21:21:43;;;;;;;20.40;2.93;;;;;10.30;100749.00;;;;10535526;28;20228;-80
2022/01/02 21:26:47;;;;;;;16.97;3.60;;;;;10.30;100757.00;;;;10518406;28;20601;-80
2022/01/02 21:31:49;;;;;;;18.63;4.33;;;;;10.30;100787.00;;;;10532947;28;20187;-80
2022/01/02 21:36:51;;;;;;;19.40;3.77;;;;;10.30;100791.00;;;;10533035;28;20208;-80
2022/01/02 21:41:54;;;;;;;15.87;4.27;;;;;10.20;100800.00;;;;10508372;28;20213;-80
2022/01/02 21:46:57;;;;;;;11.87;2.90;;;;;10.20;100808.00;;;;10492554;28;20211;-79
2022/01/02 21:51:59;;;;;;;15.67;3.63;;;;;10.10;100812.00;;;;10508084;28;20185;-79
2022/01/02 21:57:01;;;;;;;19.93;4.13;;;;;10.10;100810.00;;;;10523890;28;20218;-79
2022/01/02 22:02:03;;;;;;;24.80;3.77;;;;;10.10;100812.00;;;;10542966;28;20204;-79
2022/01/02 22:07:07;;;;;;;21.47;4.27;;;;;10.10;100816.00;;;;10527447;28;20200;-79
2022/01/02 22:12:11;;;;;;;16.03;3.00;;;;;10.10;100807.00;;;;10591716;27;20187;-79
2022/01/02 22:17:14;;;;;;;15.53;2.93;;;;;10.10;100804.00;;;;10591673;27;20742;-79
2022/01/02 22:22:16;;;;;;;19.47;4.23;;;;;10.00;100817.00;;;;10579218;27;20221;-80
2022/01/02 22:27:18;;;;;;;20.30;3.77;;;;;10.00;100829.00;;;;10515701;28;20192;-79
2022/01/02 22:32:21;;;;;;;22.57;3.90;;;;;10.00;100833.00;;;;10514367;28;20203;-80
2022/01/02 22:37:23;;;;;;;18.00;4.73;;;;;10.00;100854.00;;;;10549506;27;20867;-79
2022/01/02 22:42:25;;;;;;;14.17;3.10;;;;;10.00;100845.00;;;;10565842;27;20196;-79
2022/01/02 22:47:31;;;;;;;16.90;3.17;;;;;10.00;100852.00;;;;10547282;28;20199;-79
2022/01/02 22:52:35;;;;;;;19.30;4.23;;;;;10.00;100860.00;;;;10507021;28;20283;-80
2022/01/02 22:57:37;;;;;;;20.23;3.80;;;;;9.90;100861.00;;;;10490859;28;20242;-81
2022/01/02 23:02:39;;;;;;;20.27;3.23;;;;;9.80;100859.00;;;;10524217;28;20204;-81
2022/01/02 23:07:41;;;;;;;18.60;4.27;;;;;9.70;100853.00;;;;10555579;27;20241;-81
2022/01/02 23:12:43;;;;;;;21.47;3.73;;;;;9.70;100856.00;;;;10574319;27;20188;-81
2022/01/02 23:17:49;;;;;;;22.80;3.67;;;;;9.70;100866.00;;;;10574374;27;20192;-81
2022/01/02 23:22:51;;;;;;;26.63;4.60;;;;;9.70;100858.00;;;;10557402;27;20219;-81
2022/01/02 23:27:57;;;;;;;19.10;3.60;;;;;9.70;100859.00;;;;10590841;28;20183;-80
2022/01/02 23:33:01;;;;;;;18.90;3.77;;;;;9.70;100862.00;;;;10548672;28;20655;-81
2022/01/02 23:38:04;;;;;;;15.93;3.63;;;;;9.70;100861.00;;;;10540437;28;20227;-80
2022/01/02 23:43:09;;;;;;;22.83;2.90;;;;;9.80;100861.00;;;;10525320;28;20671;-80
2022/01/02 23:48:16;;;;;;;14.60;3.20;;;;;9.80;100864.00;;;;10530518;28;20207;-81
2022/01/02 23:53:18;;;;;;;12.17;3.13;;;;;9.80;100876.00;;;;10505858;28;20231;-80
2022/01/02 23:58:19;;;;;;;25.73;4.17;;;;;9.80;100874.00;;;;10505121;28;20219;-80
